sensor_id;sensor_type;location;lat;lon;timestamp;temperature;humidity
9998;DHT22;5038;53.064;8.624;2023-03-08T00:00:43;0.50;99.90
9998;DHT22;5038;53.064;8.624;2023-03-08T00:03:12;0.50;99.90
9998;DHT22;5038;53.064;8.624;2023-03-08T00:05:42;0.50;99.90
9998;DHT22;5038;53.064;8.624;2023-03-08T00:08:10;0.50;99.90
9998;DHT22;5038;53.064;8.624;2023-03-08T00:10:39;0.40;99.90
9998;DHT22;5038;53.064;8.624;2023-03-08T00:13:07;0.40;99.90
9998;DHT22;5038;53.064;8.624;2023-03-08T00:15:35;0.40;99.90
9998;DHT22;5038;53.064;8.624;2023-03-08T00:18:04;0.40;99.90
9998;DHT22;5038;53.064;8.624;2023-03-08T00:20:33;0.40;99.90
9998;DHT22;5038;53.064;8.624;2023-03-08T00:23:02;0.40;99.90
9998;DHT22;5038;53.064;8.624;2023-03-08T00:25:30;0.40;99.90
9998;DHT22;5038;53.064;8.624;2023-03-08T00:27:58;0.40;99.90
9998;DHT22;5038;53.064;8.624;2023-03-08T00:30:29;0.40;99.90
9998;DHT22;5038;53.064;8.624;2023-03-08T00:32:57;0.40;99.90
9998;DHT22;5038;53.064;8.624;2023-03-08T00:35:25;0.40;99.90
9998;DHT22;5038;53.064;8.624;2023-03-08T00:37:53;0.40;99.90
9998;DHT22;5038;53.064;8.624;2023-03-08T00:40:22;0.40;99.90
9998;DHT22;5038;53.064;8.624;2023-03-08T00:42:50;0.40;99.90
9998;DHT22;5038;53.064;8.624;2023-03-08T00:45:18;0.40;99.90
9998;DHT22;5038;53.064;8.624;2023-03-08T00:47:46;0.30;99.90
9998;DHT22;5038;53.064;8.624;2023-03-08T00:50:15;0.30;99.90
9998;DHT22;5038;53.064;8.624;2023-03-08T00:52:43;0.30;99.90
9998;DHT22;5038;53.064;8.624;2023-03-08T00:55:12;0.30;99.90
9998;DHT22;5038;53.064;8.624;2023-03-08T00:57:41;0.30;99.90
9998;DHT22;5038;53.064;8.624;2023-03-08T01:00:11;0.30;99.90
9998;DHT22;5038;53.064;8.624;2023-03-08T01:02:39;0.30;99.90
9998;DHT22;5038;53.064;8.624;2023-03-08T01:05:08;0.30;99.90
9998;DHT22;5038;53.064;8.624;2023-03-08T01:07:36;0.30;99.90
9998;DHT22;5038;53.064;8.624;2023-03-08T01:10:07;0.30;99.90
9998;DHT22;5038;53.064;8.624;2023-03-08T01:12:36;0.30;99.90
9998;DHT22;5038;53.064;8.624;2023-03-08T01:15:07;0.30;99.90
9998;DHT22;5038;53.064;8.624;2023-03-08T01:17:35;0.30;99.90
9998;DHT22;5038;53.064;8.624;2023-03-08T01:20:04;0.20;99.90
9998;DHT22;5038;53.064;8.624;2023-03-08T01:22:32;0.20;99.90
9998;DHT22;5038;53.064;8.624;2023-03-08T01:25:01;0.20;99.90
9998;DHT22;5038;53.064;8.624;2023-03-08T01:27:29;0.20;99.90
9998;DHT22;5038;53.064;8.624;2023-03-08T01:29:57;0.20;99.90
9998;DHT22;5038;53.064;8.624;2023-03-08T01:32:26;0.20;99.90
9998;DHT22;5038;53.064;8.624;2023-03-08T01:34:55;0.20;99.90
9998;DHT22;5038;53.064;8.624;2023-03-08T01:37:27;0.20;99.90
9998;DHT22;5038;53.064;8.624;2023-03-08T01:39:56;0.20;99.90
9998;DHT22;5038;53.064;8.624;2023-03-08T01:42:24;0.20;99.90
9998;DHT22;5038;53.064;8.624;2023-03-08T01:44:54;0.20;99.90
9998;DHT22;5038;53.064;8.624;2023-03-08T01:47:24;0.10;99.90
9998;DHT22;5038;53.064;8.624;2023-03-08T01:50:19;0.10;99.90
9998;DHT22;5038;53.064;8.624;2023-03-08T01:52:51;0.10;99.90
9998;DHT22;5038;53.064;8.624;2023-03-08T01:55:20;0.10;99.90
9998;DHT22;5038;53.064;8.624;2023-03-08T01:57:51;0.10;99.90
9998;DHT22;5038;53.064;8.624;2023-03-08T02:00:22;0.10;99.90
9998;DHT22;5038;53.064;8.624;2023-03-08T02:02:53;0.10;99.90
9998;DHT22;5038;53.064;8.624;2023-03-08T02:05:24;0.10;99.90
9998;DHT22;5038;53.064;8.624;2023-03-08T02:07:58;0.10;99.90
9998;DHT22;5038;53.064;8.624;2023-03-08T02:10:31;0.10;99.90
9998;DHT22;5038;53.064;8.624;2023-03-08T02:12:59;0.10;99.90
9998;DHT22;5038;53.064;8.624;2023-03-08T02:15:27;0.10;99.90
9998;DHT22;5038;53.064;8.624;2023-03-08T02:17:56;0.10;99.90
9998;DHT22;5038;53.064;8.624;2023-03-08T02:20:28;0.00;99.90
9998;DHT22;5038;53.064;8.624;2023-03-08T02:23:08;0.10;99.90
9998;DHT22;5038;53.064;8.624;2023-03-08T02:25:36;0.10;99.90
9998;DHT22;5038;53.064;8.624;2023-03-08T02:28:07;0.10;99.90
9998;DHT22;5038;53.064;8.624;2023-03-08T02:30:36;0.10;99.90
9998;DHT22;5038;53.064;8.624;2023-03-08T02:33:05;0.10;99.90
9998;DHT22;5038;53.064;8.624;2023-03-08T02:35:36;0.00;99.90
9998;DHT22;5038;53.064;8.624;2023-03-08T02:38:14;0.00;99.90
9998;DHT22;5038;53.064;8.624;2023-03-08T02:40:44;0.00;99.90
9998;DHT22;5038;53.064;8.624;2023-03-08T02:43:12;0.00;99.90
9998;DHT22;5038;53.064;8.624;2023-03-08T02:45:40;0.00;99.90
9998;DHT22;5038;53.064;8.624;2023-03-08T02:48:08;0.00;99.90
9998;DHT22;5038;53.064;8.624;2023-03-08T02:50:36;0.00;99.90
9998;DHT22;5038;53.064;8.624;2023-03-08T02:53:05;0.00;99.90
9998;DHT22;5038;53.064;8.624;2023-03-08T02:55:35;0.10;99.90
9998;DHT22;5038;53.064;8.624;2023-03-08T02:58:08;0.10;99.90
9998;DHT22;5038;53.064;8.624;2023-03-08T03:00:37;0.10;99.90
9998;DHT22;5038;53.064;8.624;2023-03-08T03:03:05;0.10;99.90
9998;DHT22;5038;53.064;8.624;2023-03-08T03:05:33;0.10;99.90
9998;DHT22;5038;53.064;8.624;2023-03-08T03:08:05;0.10;99.90
9998;DHT22;5038;53.064;8.624;2023-03-08T03:10:35;0.10;99.90
9998;DHT22;5038;53.064;8.624;2023-03-08T03:13:03;0.10;99.90
9998;DHT22;5038;53.064;8.624;2023-03-08T03:15:32;0.10;99.90
9998;DHT22;5038;53.064;8.624;2023-03-08T03:18:00;0.20;99.90
9998;DHT22;5038;53.064;8.624;2023-03-08T03:20:28;0.20;99.90
9998;DHT22;5038;53.064;8.624;2023-03-08T03:22:57;0.10;99.90
9998;DHT22;5038;53.064;8.624;2023-03-08T03:25:37;0.20;99.90
9998;DHT22;5038;53.064;8.624;2023-03-08T03:28:09;0.20;99.90
9998;DHT22;5038;53.064;8.624;2023-03-08T03:30:38;0.10;99.90
9998;DHT22;5038;53.064;8.624;2023-03-08T03:33:09;0.20;99.90
9998;DHT22;5038;53.064;8.624;2023-03-08T03:35:38;0.10;99.90
9998;DHT22;5038;53.064;8.624;2023-03-08T03:38:08;0.20;99.90
9998;DHT22;5038;53.064;8.624;2023-03-08T03:40:38;0.20;99.90
9998;DHT22;5038;53.064;8.624;2023-03-08T03:43:06;0.20;99.90
9998;DHT22;5038;53.064;8.624;2023-03-08T03:45:35;0.20;99.90
9998;DHT22;5038;53.064;8.624;2023-03-08T03:48:03;0.20;99.90
9998;DHT22;5038;53.064;8.624;2023-03-08T03:50:32;0.20;99.90
9998;DHT22;5038;53.064;8.624;2023-03-08T03:53:05;0.20;99.90
9998;DHT22;5038;53.064;8.624;2023-03-08T03:55:34;0.20;99.90
9998;DHT22;5038;53.064;8.624;2023-03-08T03:58:04;0.10;99.90
9998;DHT22;5038;53.064;8.624;2023-03-08T04:00:32;0.20;99.90
9998;DHT22;5038;53.064;8.624;2023-03-08T04:03:11;0.20;99.90
9998;DHT22;5038;53.064;8.624;2023-03-08T04:05:41;0.10;99.90
9998;DHT22;5038;53.064;8.624;2023-03-08T04:08:10;0.20;99.90
9998;DHT22;5038;53.064;8.624;2023-03-08T04:10:40;0.20;99.90
9998;DHT22;5038;53.064;8.624;2023-03-08T04:13:11;0.20;99.90
9998;DHT22;5038;53.064;8.624;2023-03-08T04:15:40;0.10;99.90
9998;DHT22;5038;53.064;8.624;2023-03-08T04:18:11;0.10;99.90
9998;DHT22;5038;53.064;8.624;2023-03-08T04:20:43;0.10;99.90
9998;DHT22;5038;53.064;8.624;2023-03-08T04:23:13;0.10;99.90
9998;DHT22;5038;53.064;8.624;2023-03-08T04:25:45;0.10;99.90
9998;DHT22;5038;53.064;8.624;2023-03-08T04:28:16;0.10;99.90
9998;DHT22;5038;53.064;8.624;2023-03-08T04:30:44;0.10;99.90
9998;DHT22;5038;53.064;8.624;2023-03-08T04:33:14;0.10;99.90
9998;DHT22;5038;53.064;8.624;2023-03-08T04:35:46;0.10;99.90
9998;DHT22;5038;53.064;8.624;2023-03-08T04:38:17;0.10;99.90
9998;DHT22;5038;53.064;8.624;2023-03-08T04:40:49;0.10;99.90
9998;DHT22;5038;53.064;8.624;2023-03-08T04:43:44;0.10;99.90
9998;DHT22;5038;53.064;8.624;2023-03-08T04:46:13;0.10;99.90
9998;DHT22;5038;53.064;8.624;2023-03-08T04:48:43;0.10;99.90
9998;DHT22;5038;53.064;8.624;2023-03-08T04:51:14;0.00;99.90
9998;DHT22;5038;53.064;8.624;2023-03-08T04:53:45;0.00;99.90
9998;DHT22;5038;53.064;8.624;2023-03-08T04:56:14;0.00;99.90
9998;DHT22;5038;53.064;8.624;2023-03-08T04:58:45;0.00;99.90
9998;DHT22;5038;53.064;8.624;2023-03-08T05:01:17;0.00;99.90
9998;DHT22;5038;53.064;8.624;2023-03-08T05:03:46;0.00;99.90
9998;DHT22;5038;53.064;8.624;2023-03-08T05:06:18;0.00;99.90
9998;DHT22;5038;53.064;8.624;2023-03-08T05:08:47;0.00;99.90
9998;DHT22;5038;53.064;8.624;2023-03-08T05:11:18;0.00;99.90
9998;DHT22;5038;53.064;8.624;2023-03-08T05:13:48;0.00;99.90
9998;DHT22;5038;53.064;8.624;2023-03-08T05:16:16;0.00;99.90
9998;DHT22;5038;53.064;8.624;2023-03-08T05:18:44;0.00;99.90
9998;DHT22;5038;53.064;8.624;2023-03-08T05:21:16;0.00;99.90
9998;DHT22;5038;53.064;8.624;2023-03-08T05:23:47;0.00;99.90
9998;DHT22;5038;53.064;8.624;2023-03-08T05:26:17;-0.10;99.90
9998;DHT22;5038;53.064;8.624;2023-03-08T05:28:48;0.00;99.90
9998;DHT22;5038;53.064;8.624;2023-03-08T05:31:19;0.00;99.90
9998;DHT22;5038;53.064;8.624;2023-03-08T05:33:51;-0.10;99.90
9998;DHT22;5038;53.064;8.624;2023-03-08T05:36:39;-0.10;99.90
9998;DHT22;5038;53.064;8.624;2023-03-08T05:39:09;-0.10;99.90
9998;DHT22;5038;53.064;8.624;2023-03-08T05:42:00;-0.10;99.90
9998;DHT22;5038;53.064;8.624;2023-03-08T05:44:37;-0.10;99.90
9998;DHT22;5038;53.064;8.624;2023-03-08T05:47:07;-0.10;99.90
9998;DHT22;5038;53.064;8.624;2023-03-08T05:49:36;-0.10;99.90
9998;DHT22;5038;53.064;8.624;2023-03-08T05:52:05;-0.10;99.90
9998;DHT22;5038;53.064;8.624;2023-03-08T05:54:34;-0.10;99.90
9998;DHT22;5038;53.064;8.624;2023-03-08T05:57:08;-0.10;99.90
9998;DHT22;5038;53.064;8.624;2023-03-08T05:59:38;-0.10;99.90
9998;DHT22;5038;53.064;8.624;2023-03-08T06:02:08;0.00;99.90
9998;DHT22;5038;53.064;8.624;2023-03-08T06:04:41;-0.10;99.90
9998;DHT22;5038;53.064;8.624;2023-03-08T06:07:11;-0.10;99.90
9998;DHT22;5038;53.064;8.624;2023-03-08T06:09:44;-0.10;99.90
9998;DHT22;5038;53.064;8.624;2023-03-08T06:12:15;-0.10;99.90
9998;DHT22;5038;53.064;8.624;2023-03-08T06:14:47;-0.10;99.90
9998;DHT22;5038;53.064;8.624;2023-03-08T06:17:18;-0.10;99.90
9998;DHT22;5038;53.064;8.624;2023-03-08T06:19:48;-0.10;99.90
9998;DHT22;5038;53.064;8.624;2023-03-08T06:22:17;-0.10;99.90
9998;DHT22;5038;53.064;8.624;2023-03-08T06:24:45;-0.10;99.90
9998;DHT22;5038;53.064;8.624;2023-03-08T06:27:21;-0.10;99.90
9998;DHT22;5038;53.064;8.624;2023-03-08T06:29:53;-0.10;99.90
9998;DHT22;5038;53.064;8.624;2023-03-08T06:32:22;0.00;99.90
9998;DHT22;5038;53.064;8.624;2023-03-08T06:34:51;0.00;99.90
9998;DHT22;5038;53.064;8.624;2023-03-08T06:37:19;-0.10;99.90
9998;DHT22;5038;53.064;8.624;2023-03-08T06:39:47;-0.10;99.90
9998;DHT22;5038;53.064;8.624;2023-03-08T06:42:16;0.00;99.90
9998;DHT22;5038;53.064;8.624;2023-03-08T06:44:52;0.00;99.90
9998;DHT22;5038;53.064;8.624;2023-03-08T06:47:21;0.00;99.90
9998;DHT22;5038;53.064;8.624;2023-03-08T06:49:49;0.00;99.90
9998;DHT22;5038;53.064;8.624;2023-03-08T06:52:19;0.00;99.90
9998;DHT22;5038;53.064;8.624;2023-03-08T06:54:47;0.10;99.90
9998;DHT22;5038;53.064;8.624;2023-03-08T06:57:15;0.10;99.90
9998;DHT22;5038;53.064;8.624;2023-03-08T06:59:43;0.10;99.90
9998;DHT22;5038;53.064;8.624;2023-03-08T07:02:13;0.10;99.90
9998;DHT22;5038;53.064;8.624;2023-03-08T07:04:41;0.10;99.90
9998;DHT22;5038;53.064;8.624;2023-03-08T07:07:09;0.10;99.90
9998;DHT22;5038;53.064;8.624;2023-03-08T07:09:37;0.20;99.90
9998;DHT22;5038;53.064;8.624;2023-03-08T07:12:05;0.20;99.90
9998;DHT22;5038;53.064;8.624;2023-03-08T07:14:34;0.30;99.90
9998;DHT22;5038;53.064;8.624;2023-03-08T07:17:02;0.30;99.90
9998;DHT22;5038;53.064;8.624;2023-03-08T07:19:31;0.30;99.90
9998;DHT22;5038;53.064;8.624;2023-03-08T07:21:59;0.30;99.90
9998;DHT22;5038;53.064;8.624;2023-03-08T07:24:27;0.40;99.90
9998;DHT22;5038;53.064;8.624;2023-03-08T07:26:55;0.50;99.90
9998;DHT22;5038;53.064;8.624;2023-03-08T07:29:23;0.50;99.90
9998;DHT22;5038;53.064;8.624;2023-03-08T07:31:51;0.50;99.90
9998;DHT22;5038;53.064;8.624;2023-03-08T07:34:19;0.50;99.90
9998;DHT22;5038;53.064;8.624;2023-03-08T07:36:49;0.60;99.90
9998;DHT22;5038;53.064;8.624;2023-03-08T07:39:18;0.60;99.90
9998;DHT22;5038;53.064;8.624;2023-03-08T07:41:46;0.60;99.90
9998;DHT22;5038;53.064;8.624;2023-03-08T07:44:14;0.70;99.90
9998;DHT22;5038;53.064;8.624;2023-03-08T07:46:42;0.70;99.90
9998;DHT22;5038;53.064;8.624;2023-03-08T07:49:12;0.80;99.90
9998;DHT22;5038;53.064;8.624;2023-03-08T07:51:40;0.80;99.90
9998;DHT22;5038;53.064;8.624;2023-03-08T07:54:11;0.80;99.90
9998;DHT22;5038;53.064;8.624;2023-03-08T07:56:39;0.80;99.90
9998;DHT22;5038;53.064;8.624;2023-03-08T07:59:08;0.90;99.90
9998;DHT22;5038;53.064;8.624;2023-03-08T08:01:36;0.90;99.90
9998;DHT22;5038;53.064;8.624;2023-03-08T08:04:04;0.90;99.90
9998;DHT22;5038;53.064;8.624;2023-03-08T08:06:35;1.00;99.90
9998;DHT22;5038;53.064;8.624;2023-03-08T08:09:03;1.00;99.90
9998;DHT22;5038;53.064;8.624;2023-03-08T08:11:33;1.10;99.90
9998;DHT22;5038;53.064;8.624;2023-03-08T08:14:01;1.10;99.90
9998;DHT22;5038;53.064;8.624;2023-03-08T08:16:29;1.10;99.90
9998;DHT22;5038;53.064;8.624;2023-03-08T08:18:57;1.20;99.90
9998;DHT22;5038;53.064;8.624;2023-03-08T08:21:25;1.20;99.90
9998;DHT22;5038;53.064;8.624;2023-03-08T08:23:53;1.20;99.90
9998;DHT22;5038;53.064;8.624;2023-03-08T08:26:23;1.20;99.90
9998;DHT22;5038;53.064;8.624;2023-03-08T08:28:53;1.30;99.90
9998;DHT22;5038;53.064;8.624;2023-03-08T08:31:24;1.30;99.90
9998;DHT22;5038;53.064;8.624;2023-03-08T08:33:52;1.40;99.90
9998;DHT22;5038;53.064;8.624;2023-03-08T08:36:20;1.40;99.90
9998;DHT22;5038;53.064;8.624;2023-03-08T08:38:49;1.50;99.90
9998;DHT22;5038;53.064;8.624;2023-03-08T08:41:19;1.50;99.90
9998;DHT22;5038;53.064;8.624;2023-03-08T08:43:48;1.60;99.90
9998;DHT22;5038;53.064;8.624;2023-03-08T08:46:17;1.60;99.90
9998;DHT22;5038;53.064;8.624;2023-03-08T08:48:45;1.70;99.90
9998;DHT22;5038;53.064;8.624;2023-03-08T08:51:13;1.70;99.90
9998;DHT22;5038;53.064;8.624;2023-03-08T08:53:42;1.70;99.90
9998;DHT22;5038;53.064;8.624;2023-03-08T08:56:12;1.80;99.90
9998;DHT22;5038;53.064;8.624;2023-03-08T08:58:54;1.90;99.90
9998;DHT22;5038;53.064;8.624;2023-03-08T09:01:25;1.90;99.90
9998;DHT22;5038;53.064;8.624;2023-03-08T09:03:54;2.00;99.90
9998;DHT22;5038;53.064;8.624;2023-03-08T09:06:23;2.00;99.90
9998;DHT22;5038;53.064;8.624;2023-03-08T09:08:53;2.10;99.90
9998;DHT22;5038;53.064;8.624;2023-03-08T09:11:22;2.20;99.90
9998;DHT22;5038;53.064;8.624;2023-03-08T09:13:52;2.20;99.90
9998;DHT22;5038;53.064;8.624;2023-03-08T09:16:23;2.30;99.90
9998;DHT22;5038;53.064;8.624;2023-03-08T09:18:52;2.30;99.90
9998;DHT22;5038;53.064;8.624;2023-03-08T09:21:22;2.40;99.90
9998;DHT22;5038;53.064;8.624;2023-03-08T09:23:51;2.50;99.90
9998;DHT22;5038;53.064;8.624;2023-03-08T09:26:19;2.60;99.90
9998;DHT22;5038;53.064;8.624;2023-03-08T09:28:47;2.60;99.90
9998;DHT22;5038;53.064;8.624;2023-03-08T09:31:16;2.70;99.90
9998;DHT22;5038;53.064;8.624;2023-03-08T09:33:48;2.70;99.90
9998;DHT22;5038;53.064;8.624;2023-03-08T09:36:17;2.80;99.90
9998;DHT22;5038;53.064;8.624;2023-03-08T09:38:46;2.80;99.90
9998;DHT22;5038;53.064;8.624;2023-03-08T09:41:29;2.90;99.90
9998;DHT22;5038;53.064;8.624;2023-03-08T09:44:09;2.90;99.90
9998;DHT22;5038;53.064;8.624;2023-03-08T09:46:41;2.90;99.90
9998;DHT22;5038;53.064;8.624;2023-03-08T09:49:17;3.00;99.90
9998;DHT22;5038;53.064;8.624;2023-03-08T09:51:49;3.00;99.90
9998;DHT22;5038;53.064;8.624;2023-03-08T09:54:22;3.00;99.90
9998;DHT22;5038;53.064;8.624;2023-03-08T09:56:52;3.10;99.90
9998;DHT22;5038;53.064;8.624;2023-03-08T09:59:24;3.20;99.90
9998;DHT22;5038;53.064;8.624;2023-03-08T10:02:01;3.30;99.90
9998;DHT22;5038;53.064;8.624;2023-03-08T10:04:40;3.30;99.90
9998;DHT22;5038;53.064;8.624;2023-03-08T10:07:23;3.40;99.90
9998;DHT22;5038;53.064;8.624;2023-03-08T10:10:08;3.40;99.90
9998;DHT22;5038;53.064;8.624;2023-03-08T10:12:54;3.50;99.90
9998;DHT22;5038;53.064;8.624;2023-03-08T10:15:24;3.60;99.90
9998;DHT22;5038;53.064;8.624;2023-03-08T10:17:58;3.60;99.90
9998;DHT22;5038;53.064;8.624;2023-03-08T10:20:30;3.60;99.90
9998;DHT22;5038;53.064;8.624;2023-03-08T10:23:01;3.70;99.90
9998;DHT22;5038;53.064;8.624;2023-03-08T10:25:31;3.70;99.90
9998;DHT22;5038;53.064;8.624;2023-03-08T10:28:02;3.80;99.90
9998;DHT22;5038;53.064;8.624;2023-03-08T10:30:33;3.80;99.90
9998;DHT22;5038;53.064;8.624;2023-03-08T10:33:05;3.90;99.90
9998;DHT22;5038;53.064;8.624;2023-03-08T10:35:39;3.90;99.90
9998;DHT22;5038;53.064;8.624;2023-03-08T10:38:17;3.90;99.90
9998;DHT22;5038;53.064;8.624;2023-03-08T10:40:45;3.80;99.90
9998;DHT22;5038;53.064;8.624;2023-03-08T10:43:18;3.90;99.90
9998;DHT22;5038;53.064;8.624;2023-03-08T10:45:58;3.90;99.90
9998;DHT22;5038;53.064;8.624;2023-03-08T10:48:26;3.90;99.90
9998;DHT22;5038;53.064;8.624;2023-03-08T10:51:00;3.90;99.90
9998;DHT22;5038;53.064;8.624;2023-03-08T10:53:29;4.00;99.90
9998;DHT22;5038;53.064;8.624;2023-03-08T10:55:59;4.00;99.90
9998;DHT22;5038;53.064;8.624;2023-03-08T10:58:31;4.10;99.90
9998;DHT22;5038;53.064;8.624;2023-03-08T11:01:01;4.10;99.90
9998;DHT22;5038;53.064;8.624;2023-03-08T11:03:30;4.10;99.90
9998;DHT22;5038;53.064;8.624;2023-03-08T11:06:01;4.10;99.90
9998;DHT22;5038;53.064;8.624;2023-03-08T11:08:32;4.20;99.90
9998;DHT22;5038;53.064;8.624;2023-03-08T11:11:06;4.20;99.90
9998;DHT22;5038;53.064;8.624;2023-03-08T11:13:36;4.30;99.90
9998;DHT22;5038;53.064;8.624;2023-03-08T11:16:21;4.30;99.90
9998;DHT22;5038;53.064;8.624;2023-03-08T11:18:59;4.30;99.90
9998;DHT22;5038;53.064;8.624;2023-03-08T11:21:37;4.30;99.90
9998;DHT22;5038;53.064;8.624;2023-03-08T11:24:21;4.40;99.90
9998;DHT22;5038;53.064;8.624;2023-03-08T11:27:10;4.40;99.90
9998;DHT22;5038;53.064;8.624;2023-03-08T11:29:49;4.30;99.90
9998;DHT22;5038;53.064;8.624;2023-03-08T11:32:32;4.40;99.90
9998;DHT22;5038;53.064;8.624;2023-03-08T11:35:18;4.40;99.90
9998;DHT22;5038;53.064;8.624;2023-03-08T11:37:55;4.40;99.90
9998;DHT22;5038;53.064;8.624;2023-03-08T11:40:28;4.50;99.90
9998;DHT22;5038;53.064;8.624;2023-03-08T11:43:10;4.50;99.90
9998;DHT22;5038;53.064;8.624;2023-03-08T11:45:47;4.50;99.90
9998;DHT22;5038;53.064;8.624;2023-03-08T11:48:30;4.50;99.90
9998;DHT22;5038;53.064;8.624;2023-03-08T11:51:05;4.60;99.90
9998;DHT22;5038;53.064;8.624;2023-03-08T11:53:47;4.60;99.90
9998;DHT22;5038;53.064;8.624;2023-03-08T11:56:38;4.70;99.90
9998;DHT22;5038;53.064;8.624;2023-03-08T11:59:13;4.70;99.90
9998;DHT22;5038;53.064;8.624;2023-03-08T12:01:47;4.70;99.90
9998;DHT22;5038;53.064;8.624;2023-03-08T12:04:18;4.70;99.90
9998;DHT22;5038;53.064;8.624;2023-03-08T12:06:48;4.80;99.90
9998;DHT22;5038;53.064;8.624;2023-03-08T12:09:22;4.80;99.90
9998;DHT22;5038;53.064;8.624;2023-03-08T12:11:55;4.80;99.90
9998;DHT22;5038;53.064;8.624;2023-03-08T12:14:31;4.80;99.90
9998;DHT22;5038;53.064;8.624;2023-03-08T12:17:05;4.80;99.90
9998;DHT22;5038;53.064;8.624;2023-03-08T12:19:41;4.80;99.90
9998;DHT22;5038;53.064;8.624;2023-03-08T12:22:26;4.80;99.90
9998;DHT22;5038;53.064;8.624;2023-03-08T12:25:04;4.80;99.90
9998;DHT22;5038;53.064;8.624;2023-03-08T12:27:39;4.90;99.90
9998;DHT22;5038;53.064;8.624;2023-03-08T12:30:16;4.80;99.90
9998;DHT22;5038;53.064;8.624;2023-03-08T12:32:47;4.80;99.90
9998;DHT22;5038;53.064;8.624;2023-03-08T12:35:27;4.80;99.90
9998;DHT22;5038;53.064;8.624;2023-03-08T12:37:58;4.80;99.90
9998;DHT22;5038;53.064;8.624;2023-03-08T12:40:40;4.90;99.90
9998;DHT22;5038;53.064;8.624;2023-03-08T12:43:11;4.90;99.90
9998;DHT22;5038;53.064;8.624;2023-03-08T12:45:42;4.90;99.90
9998;DHT22;5038;53.064;8.624;2023-03-08T12:48:29;5.00;99.90
9998;DHT22;5038;53.064;8.624;2023-03-08T12:51:02;5.00;99.90
9998;DHT22;5038;53.064;8.624;2023-03-08T12:53:35;5.00;99.90
9998;DHT22;5038;53.064;8.624;2023-03-08T12:56:20;5.10;99.90
9998;DHT22;5038;53.064;8.624;2023-03-08T12:58:51;5.10;99.90
9998;DHT22;5038;53.064;8.624;2023-03-08T13:01:36;5.10;99.90
9998;DHT22;5038;53.064;8.624;2023-03-08T13:04:24;5.10;99.90
9998;DHT22;5038;53.064;8.624;2023-03-08T13:07:16;5.20;99.90
9998;DHT22;5038;53.064;8.624;2023-03-08T13:09:51;5.20;99.90
9998;DHT22;5038;53.064;8.624;2023-03-08T13:12:35;5.20;99.90
9998;DHT22;5038;53.064;8.624;2023-03-08T13:15:21;5.30;99.90
9998;DHT22;5038;53.064;8.624;2023-03-08T13:17:59;5.30;99.90
9998;DHT22;5038;53.064;8.624;2023-03-08T13:20:49;5.30;99.90
9998;DHT22;5038;53.064;8.624;2023-03-08T13:23:25;5.40;99.90
9998;DHT22;5038;53.064;8.624;2023-03-08T13:26:05;5.40;99.90
9998;DHT22;5038;53.064;8.624;2023-03-08T13:28:41;5.40;99.90
9998;DHT22;5038;53.064;8.624;2023-03-08T13:31:15;5.50;99.90
9998;DHT22;5038;53.064;8.624;2023-03-08T13:33:46;5.50;99.90
9998;DHT22;5038;53.064;8.624;2023-03-08T13:36:18;5.50;99.90
9998;DHT22;5038;53.064;8.624;2023-03-08T13:38:56;5.50;99.90
9998;DHT22;5038;53.064;8.624;2023-03-08T13:41:35;5.50;99.90
9998;DHT22;5038;53.064;8.624;2023-03-08T13:44:06;5.50;99.90
9998;DHT22;5038;53.064;8.624;2023-03-08T13:46:35;5.50;99.90
9998;DHT22;5038;53.064;8.624;2023-03-08T13:49:13;5.50;99.90
9998;DHT22;5038;53.064;8.624;2023-03-08T13:51:43;5.50;99.90
9998;DHT22;5038;53.064;8.624;2023-03-08T13:54:15;5.50;99.90
9998;DHT22;5038;53.064;8.624;2023-03-08T13:56:43;5.50;99.90
9998;DHT22;5038;53.064;8.624;2023-03-08T13:59:18;5.50;99.90
9998;DHT22;5038;53.064;8.624;2023-03-08T14:01:47;5.50;99.90
9998;DHT22;5038;53.064;8.624;2023-03-08T14:04:20;5.40;99.90
9998;DHT22;5038;53.064;8.624;2023-03-08T14:06:50;5.40;99.90
9998;DHT22;5038;53.064;8.624;2023-03-08T14:09:19;5.40;99.90
9998;DHT22;5038;53.064;8.624;2023-03-08T14:11:55;5.40;99.90
9998;DHT22;5038;53.064;8.624;2023-03-08T14:14:28;5.40;99.90
9998;DHT22;5038;53.064;8.624;2023-03-08T14:16:58;5.40;99.90
9998;DHT22;5038;53.064;8.624;2023-03-08T14:19:29;5.40;99.90
9998;DHT22;5038;53.064;8.624;2023-03-08T14:21:59;5.40;99.90
9998;DHT22;5038;53.064;8.624;2023-03-08T14:24:30;5.40;99.90
9998;DHT22;5038;53.064;8.624;2023-03-08T14:27:00;5.40;99.90
9998;DHT22;5038;53.064;8.624;2023-03-08T14:29:31;5.40;99.90
9998;DHT22;5038;53.064;8.624;2023-03-08T14:32:03;5.40;99.90
9998;DHT22;5038;53.064;8.624;2023-03-08T14:34:33;5.40;99.90
9998;DHT22;5038;53.064;8.624;2023-03-08T14:37:05;5.40;99.90
9998;DHT22;5038;53.064;8.624;2023-03-08T14:39:35;5.40;99.90
9998;DHT22;5038;53.064;8.624;2023-03-08T14:42:09;5.50;99.90
9998;DHT22;5038;53.064;8.624;2023-03-08T14:44:39;5.50;99.90
9998;DHT22;5038;53.064;8.624;2023-03-08T14:47:16;5.50;99.90
9998;DHT22;5038;53.064;8.624;2023-03-08T14:49:54;5.50;99.90
9998;DHT22;5038;53.064;8.624;2023-03-08T14:52:22;5.50;99.90
9998;DHT22;5038;53.064;8.624;2023-03-08T14:54:53;5.40;99.90
9998;DHT22;5038;53.064;8.624;2023-03-08T14:57:23;5.40;99.90
9998;DHT22;5038;53.064;8.624;2023-03-08T14:59:55;5.40;99.90
9998;DHT22;5038;53.064;8.624;2023-03-08T15:02:33;5.50;99.90
9998;DHT22;5038;53.064;8.624;2023-03-08T15:05:03;5.40;99.90
9998;DHT22;5038;53.064;8.624;2023-03-08T15:07:33;5.40;99.90
9998;DHT22;5038;53.064;8.624;2023-03-08T15:10:05;5.50;99.90
9998;DHT22;5038;53.064;8.624;2023-03-08T15:12:33;5.40;99.90
9998;DHT22;5038;53.064;8.624;2023-03-08T15:15:11;5.40;99.90
9998;DHT22;5038;53.064;8.624;2023-03-08T15:17:39;5.40;99.90
9998;DHT22;5038;53.064;8.624;2023-03-08T15:20:09;5.40;99.90
9998;DHT22;5038;53.064;8.624;2023-03-08T15:22:44;5.40;99.90
9998;DHT22;5038;53.064;8.624;2023-03-08T15:25:17;5.40;99.90
9998;DHT22;5038;53.064;8.624;2023-03-08T15:27:45;5.40;99.90
9998;DHT22;5038;53.064;8.624;2023-03-08T15:30:19;5.30;99.90
9998;DHT22;5038;53.064;8.624;2023-03-08T15:32:48;5.30;99.90
9998;DHT22;5038;53.064;8.624;2023-03-08T15:35:17;5.30;99.90
9998;DHT22;5038;53.064;8.624;2023-03-08T15:37:45;5.30;99.90
9998;DHT22;5038;53.064;8.624;2023-03-08T15:40:16;5.20;99.90
9998;DHT22;5038;53.064;8.624;2023-03-08T15:42:44;5.20;99.90
9998;DHT22;5038;53.064;8.624;2023-03-08T15:45:13;5.20;99.90
9998;DHT22;5038;53.064;8.624;2023-03-08T15:47:43;5.20;99.90
9998;DHT22;5038;53.064;8.624;2023-03-08T15:50:14;5.20;99.90
9998;DHT22;5038;53.064;8.624;2023-03-08T15:52:43;5.20;99.90
9998;DHT22;5038;53.064;8.624;2023-03-08T15:55:12;5.20;99.90
9998;DHT22;5038;53.064;8.624;2023-03-08T15:57:41;5.20;99.90
9998;DHT22;5038;53.064;8.624;2023-03-08T16:00:13;5.10;99.90
9998;DHT22;5038;53.064;8.624;2023-03-08T16:02:43;5.10;99.90
9998;DHT22;5038;53.064;8.624;2023-03-08T16:05:12;5.10;99.90
9998;DHT22;5038;53.064;8.624;2023-03-08T16:07:40;5.00;99.90
9998;DHT22;5038;53.064;8.624;2023-03-08T16:10:11;5.00;99.90
9998;DHT22;5038;53.064;8.624;2023-03-08T16:12:40;5.00;99.90
9998;DHT22;5038;53.064;8.624;2023-03-08T16:15:09;5.00;99.90
9998;DHT22;5038;53.064;8.624;2023-03-08T16:17:37;5.00;99.90
9998;DHT22;5038;53.064;8.624;2023-03-08T16:20:08;5.00;99.90
9998;DHT22;5038;53.064;8.624;2023-03-08T16:22:36;4.90;99.90
9998;DHT22;5038;53.064;8.624;2023-03-08T16:25:05;4.90;99.90
9998;DHT22;5038;53.064;8.624;2023-03-08T16:27:34;4.90;99.90
9998;DHT22;5038;53.064;8.624;2023-03-08T16:30:05;4.90;99.90
9998;DHT22;5038;53.064;8.624;2023-03-08T16:32:33;4.90;99.90
9998;DHT22;5038;53.064;8.624;2023-03-08T16:35:01;4.90;99.90
9998;DHT22;5038;53.064;8.624;2023-03-08T16:37:31;4.90;99.90
9998;DHT22;5038;53.064;8.624;2023-03-08T16:39:59;4.90;99.90
9998;DHT22;5038;53.064;8.624;2023-03-08T16:42:28;4.80;99.90
9998;DHT22;5038;53.064;8.624;2023-03-08T16:44:57;4.80;99.90